sensor_id;sensor_type;location;lat;lon;timestamp;pressure;altitude;pressure_sealevel;temperature;humidity
79150;BME280;68563;45.644;13.782;2024-03-29T00:01:01;100506.88;;;12.91;71.63
79150;BME280;68563;45.644;13.782;2024-03-29T00:03:27;100519.78;;;12.95;71.76
79150;BME280;68563;45.644;13.782;2024-03-29T00:05:52;100509.53;;;12.88;71.12
79150;BME280;68563;45.644;13.782;2024-03-29T00:08:18;100517.28;;;12.91;70.84
79150;BME280;68563;45.644;13.782;2024-03-29T00:10:46;100514.72;;;12.88;70.77
79150;BME280;68563;45.644;13.782;2024-03-29T00:13:12;100522.41;;;12.93;70.24
79150;BME280;68563;45.644;13.782;2024-03-29T00:15:37;100518.97;;;12.92;70.09
79150;BME280;68563;45.644;13.782;2024-03-29T00:18:03;100513.84;;;12.89;69.98
79150;BME280;68563;45.644;13.782;2024-03-29T00:20:28;100518.84;;;12.97;69.60
79150;BME280;68563;45.644;13.782;2024-03-29T00:22:55;100523.19;;;12.97;69.79
79150;BME280;68563;45.644;13.782;2024-03-29T00:25:20;100519.78;;;12.95;69.71
79150;BME280;68563;45.644;13.782;2024-03-29T00:27:45;100518.97;;;12.92;69.25
79150;BME280;68563;45.644;13.782;2024-03-29T00:30:13;100515.50;;;12.92;69.15
79150;BME280;68563;45.644;13.782;2024-03-29T00:32:38;100522.41;;;12.93;69.22
79150;BME280;68563;45.644;13.782;2024-03-29T00:35:04;100525.06;;;12.91;69.76
79150;BME280;68563;45.644;13.782;2024-03-29T00:37:29;100526.84;;;12.89;69.23
79150;BME280;68563;45.644;13.782;2024-03-29T00:39:55;100529.41;;;12.91;69.58
79150;BME280;68563;45.644;13.782;2024-03-29T00:42:20;100524.19;;;12.91;69.51
79150;BME280;68563;45.644;13.782;2024-03-29T00:44:46;100526.94;;;12.86;69.45
79150;BME280;68563;45.644;13.782;2024-03-29T00:47:11;100521.03;;;12.80;69.25
79150;BME280;68563;45.644;13.782;2024-03-29T00:49:38;100524.44;;;12.82;69.20
79150;BME280;68563;45.644;13.782;2024-03-29T00:52:04;100532.25;;;12.82;69.29
79150;BME280;68563;45.644;13.782;2024-03-29T00:54:30;100536.56;;;12.83;69.21
79150;BME280;68563;45.644;13.782;2024-03-29T00:56:56;100525.28;;;12.82;68.95
79150;BME280;68563;45.644;13.782;2024-03-29T00:59:21;100527.81;;;12.85;69.36
79150;BME280;68563;45.644;13.782;2024-03-29T01:01:48;100530.41;;;12.85;69.74
79150;BME280;68563;45.644;13.782;2024-03-29T01:04:13;100522.69;;;12.82;70.77
79150;BME280;68563;45.644;13.782;2024-03-29T01:06:39;100512.34;;;12.81;71.00
79150;BME280;68563;45.644;13.782;2024-03-29T01:09:10;100520.09;;;12.82;70.79
79150;BME280;68563;45.644;13.782;2024-03-29T01:11:40;100503.72;;;12.79;71.39
79150;BME280;68563;45.644;13.782;2024-03-29T01:14:06;100510.63;;;12.80;71.63
79150;BME280;68563;45.644;13.782;2024-03-29T01:16:32;100502.94;;;12.75;71.85
79150;BME280;68563;45.644;13.782;2024-03-29T01:18:58;100506.44;;;12.74;71.70
79150;BME280;68563;45.644;13.782;2024-03-29T01:21:24;100503.88;;;12.72;72.26
79150;BME280;68563;45.644;13.782;2024-03-29T01:23:49;100506.53;;;12.69;72.71
79150;BME280;68563;45.644;13.782;2024-03-29T01:26:15;100497.06;;;12.68;72.73
79150;BME280;68563;45.644;13.782;2024-03-29T01:28:42;100505.50;;;12.76;72.28
79150;BME280;68563;45.644;13.782;2024-03-29T01:31:08;100495.31;;;12.69;72.33
79150;BME280;68563;45.644;13.782;2024-03-29T01:33:33;100498.00;;;12.66;71.64
79150;BME280;68563;45.644;13.782;2024-03-29T01:36:03;100497.06;;;12.68;71.51
79150;BME280;68563;45.644;13.782;2024-03-29T01:38:28;100493.53;;;12.71;71.74
79150;BME280;68563;45.644;13.782;2024-03-29T01:40:54;100499.75;;;12.64;71.65
79150;BME280;68563;45.644;13.782;2024-03-29T01:43:19;100496.38;;;12.60;72.32
79150;BME280;68563;45.644;13.782;2024-03-29T01:45:47;100498.09;;;12.59;72.11
79150;BME280;68563;45.644;13.782;2024-03-29T01:48:13;100494.72;;;12.57;71.89
79150;BME280;68563;45.644;13.782;2024-03-29T01:50:39;100500.84;;;12.55;71.90
79150;BME280;68563;45.644;13.782;2024-03-29T01:53:05;100502.66;;;12.51;72.60
79150;BME280;68563;45.644;13.782;2024-03-29T01:55:32;100509.56;;;12.51;72.62
79150;BME280;68563;45.644;13.782;2024-03-29T01:57:58;100508.75;;;12.50;73.46
79150;BME280;68563;45.644;13.782;2024-03-29T02:00:24;100513.94;;;12.50;73.32
79150;BME280;68563;45.644;13.782;2024-03-29T02:02:51;100516.69;;;12.44;73.47
79150;BME280;68563;45.644;13.782;2024-03-29T02:05:16;100529.53;;;12.50;73.53
79150;BME280;68563;45.644;13.782;2024-03-29T02:07:41;100522.66;;;12.46;73.05
79150;BME280;68563;45.644;13.782;2024-03-29T02:10:11;100533.88;;;12.48;73.45
79150;BME280;68563;45.644;13.782;2024-03-29T02:12:38;100537.38;;;12.47;74.43
79150;BME280;68563;45.644;13.782;2024-03-29T02:15:04;100531.50;;;12.39;74.08
79150;BME280;68563;45.644;13.782;2024-03-29T02:17:31;100540.09;;;12.41;74.53
79150;BME280;68563;45.644;13.782;2024-03-29T02:19:56;100534.16;;;12.36;74.10
79150;BME280;68563;45.644;13.782;2024-03-29T02:22:24;100542.66;;;12.42;73.04
79150;BME280;68563;45.644;13.782;2024-03-29T02:24:50;100528.88;;;12.40;73.14
79150;BME280;68563;45.644;13.782;2024-03-29T02:27:17;100525.44;;;12.38;73.17
79150;BME280;68563;45.644;13.782;2024-03-29T02:29:42;100510.81;;;12.36;73.13
79150;BME280;68563;45.644;13.782;2024-03-29T02:32:07;100526.44;;;12.33;72.59
79150;BME280;68563;45.644;13.782;2024-03-29T02:34:33;100535.06;;;12.35;72.19
79150;BME280;68563;45.644;13.782;2024-03-29T02:36:58;100543.72;;;12.34;72.07
79150;BME280;68563;45.644;13.782;2024-03-29T02:39:24;100548.09;;;12.32;72.96
79150;BME280;68563;45.644;13.782;2024-03-29T02:41:50;100544.78;;;12.25;73.30
79150;BME280;68563;45.644;13.782;2024-03-29T02:44:16;100567.94;;;12.36;73.11
79150;BME280;68563;45.644;13.782;2024-03-29T02:46:42;100560.19;;;12.34;73.23
79150;BME280;68563;45.644;13.782;2024-03-29T02:49:08;100562.00;;;12.31;73.11
79150;BME280;68563;45.644;13.782;2024-03-29T02:51:33;100562.88;;;12.29;72.84
79150;BME280;68563;45.644;13.782;2024-03-29T02:53:58;100566.34;;;12.28;73.06
79150;BME280;68563;45.644;13.782;2024-03-29T02:56:24;100559.50;;;12.26;73.17
79150;BME280;68563;45.644;13.782;2024-03-29T02:58:49;100579.28;;;12.30;72.83
79150;BME280;68563;45.644;13.782;2024-03-29T03:01:15;100581.06;;;12.29;72.76
79150;BME280;68563;45.644;13.782;2024-03-29T03:03:40;100587.19;;;12.25;72.72
79150;BME280;68563;45.644;13.782;2024-03-29T03:06:05;100601.00;;;12.27;72.92
79150;BME280;68563;45.644;13.782;2024-03-29T03:08:31;100591.50;;;12.26;72.84
79150;BME280;68563;45.644;13.782;2024-03-29T03:11:15;100601.03;;;12.24;73.00
79150;BME280;68563;45.644;13.782;2024-03-29T03:13:40;100603.69;;;12.23;72.14
79150;BME280;68563;45.644;13.782;2024-03-29T03:16:06;100609.75;;;12.23;72.23
79150;BME280;68563;45.644;13.782;2024-03-29T03:18:31;100623.59;;;12.22;72.59
79150;BME280;68563;45.644;13.782;2024-03-29T03:20:57;100623.63;;;12.21;72.67
79150;BME280;68563;45.644;13.782;2024-03-29T03:23:25;100609.13;;;12.10;72.61
79150;BME280;68563;45.644;13.782;2024-03-29T03:25:57;100625.38;;;12.20;71.25
79150;BME280;68563;45.644;13.782;2024-03-29T03:28:23;100626.22;;;12.21;71.72
79150;BME280;68563;45.644;13.782;2024-03-29T03:30:50;100627.03;;;12.23;72.03
79150;BME280;68563;45.644;13.782;2024-03-29T03:33:15;100623.53;;;12.25;71.66
79150;BME280;68563;45.644;13.782;2024-03-29T03:35:42;100616.63;;;12.24;71.31
79150;BME280;68563;45.644;13.782;2024-03-29T03:38:07;100611.47;;;12.23;71.34
79150;BME280;68563;45.644;13.782;2024-03-29T03:40:34;100630.41;;;12.28;70.83
79150;BME280;68563;45.644;13.782;2024-03-29T03:43:00;100630.38;;;12.29;70.54
79150;BME280;68563;45.644;13.782;2024-03-29T03:45:25;100628.66;;;12.28;70.54
79150;BME280;68563;45.644;13.782;2024-03-29T03:47:50;100629.59;;;12.24;71.14
79150;BME280;68563;45.644;13.782;2024-03-29T03:50:16;100631.41;;;12.22;71.08
79150;BME280;68563;45.644;13.782;2024-03-29T03:52:41;100621.94;;;12.18;71.33
79150;BME280;68563;45.644;13.782;2024-03-29T03:55:07;100627.13;;;12.18;71.39
79150;BME280;68563;45.644;13.782;2024-03-29T03:57:32;100630.59;;;12.19;70.70
79150;BME280;68563;45.644;13.782;2024-03-29T03:59:59;100625.41;;;12.17;70.98
79150;BME280;68563;45.644;13.782;2024-03-29T04:02:24;100626.34;;;12.15;71.36
79150;BME280;68563;45.644;13.782;2024-03-29T04:04:50;100629.00;;;12.11;71.38
79150;BME280;68563;45.644;13.782;2024-03-29T04:07:15;100630.75;;;12.11;71.06
79150;BME280;68563;45.644;13.782;2024-03-29T04:09:41;100629.91;;;12.10;70.91
79150;BME280;68563;45.644;13.782;2024-03-29T04:12:06;100619.56;;;12.07;70.52
79150;BME280;68563;45.644;13.782;2024-03-29T04:14:32;100634.22;;;12.11;70.17
79150;BME280;68563;45.644;13.782;2024-03-29T04:16:57;100644.31;;;12.25;69.34
79150;BME280;68563;45.644;13.782;2024-03-29T04:19:22;100644.31;;;12.25;69.69
79150;BME280;68563;45.644;13.782;2024-03-29T04:21:48;100650.50;;;12.20;69.90
79150;BME280;68563;45.644;13.782;2024-03-29T04:24:13;100645.31;;;12.18;69.64
79150;BME280;68563;45.644;13.782;2024-03-29T04:26:39;100635.94;;;12.11;70.03
79150;BME280;68563;45.644;13.782;2024-03-29T04:29:04;100640.16;;;12.17;69.76
79150;BME280;68563;45.644;13.782;2024-03-29T04:31:30;100649.56;;;12.21;69.92
79150;BME280;68563;45.644;13.782;2024-03-29T04:33:55;100668.66;;;12.20;69.88
79150;BME280;68563;45.644;13.782;2024-03-29T04:36:21;100665.19;;;12.19;69.46
79150;BME280;68563;45.644;13.782;2024-03-29T04:38:46;100665.16;;;12.22;69.75
79150;BME280;68563;45.644;13.782;2024-03-29T04:41:12;100669.47;;;12.23;69.28
79150;BME280;68563;45.644;13.782;2024-03-29T04:43:40;100673.59;;;12.32;69.61
79150;BME280;68563;45.644;13.782;2024-03-29T04:46:13;100682.44;;;12.23;69.53
79150;BME280;68563;45.644;13.782;2024-03-29T04:48:40;100681.59;;;12.21;69.67
79150;BME280;68563;45.644;13.782;2024-03-29T04:51:07;100675.44;;;12.27;69.69
79150;BME280;68563;45.644;13.782;2024-03-29T04:53:32;100674.66;;;12.22;69.56
79150;BME280;68563;45.644;13.782;2024-03-29T04:55:58;100684.03;;;12.29;69.90
79150;BME280;68563;45.644;13.782;2024-03-29T04:58:27;100679.72;;;12.29;69.43
79150;BME280;68563;45.644;13.782;2024-03-29T05:00:54;100696.09;;;12.33;69.99
79150;BME280;68563;45.644;13.782;2024-03-29T05:03:20;100688.34;;;12.30;69.89
79150;BME280;68563;45.644;13.782;2024-03-29T05:05:46;100698.69;;;12.32;70.14
79150;BME280;68563;45.644;13.782;2024-03-29T05:08:12;100708.22;;;12.33;70.04
79150;BME280;68563;45.644;13.782;2024-03-29T05:10:39;100713.34;;;12.36;69.65
79150;BME280;68563;45.644;13.782;2024-03-29T05:13:05;100706.41;;;12.36;70.14
79150;BME280;68563;45.644;13.782;2024-03-29T05:15:31;100714.22;;;12.35;70.01
79150;BME280;68563;45.644;13.782;2024-03-29T05:17:56;100709.81;;;12.40;70.49
79150;BME280;68563;45.644;13.782;2024-03-29T05:20:22;100726.19;;;12.43;69.49
79150;BME280;68563;45.644;13.782;2024-03-29T05:22:47;100736.44;;;12.50;69.66
79150;BME280;68563;45.644;13.782;2024-03-29T05:25:12;100732.94;;;12.52;69.95
79150;BME280;68563;45.644;13.782;2024-03-29T05:27:38;100735.53;;;12.52;69.31
79150;BME280;68563;45.644;13.782;2024-03-29T05:30:04;100726.97;;;12.47;69.73
79150;BME280;68563;45.644;13.782;2024-03-29T05:32:30;100733.88;;;12.48;70.37
79150;BME280;68563;45.644;13.782;2024-03-29T05:34:55;100734.75;;;12.47;70.52
79150;BME280;68563;45.644;13.782;2024-03-29T05:37:21;100739.09;;;12.48;70.75
79150;BME280;68563;45.644;13.782;2024-03-29T05:39:48;100751.16;;;12.51;70.97
79150;BME280;68563;45.644;13.782;2024-03-29T05:42:13;100743.44;;;12.48;70.86
79150;BME280;68563;45.644;13.782;2024-03-29T05:44:38;100749.41;;;12.51;70.94
79150;BME280;68563;45.644;13.782;2024-03-29T05:47:04;100751.19;;;12.49;71.80
79150;BME280;68563;45.644;13.782;2024-03-29T05:49:30;100754.69;;;12.47;72.72
79150;BME280;68563;45.644;13.782;2024-03-29T05:51:56;100770.22;;;12.51;72.50
79150;BME280;68563;45.644;13.782;2024-03-29T05:54:21;100761.56;;;12.49;72.84
79150;BME280;68563;45.644;13.782;2024-03-29T05:56:48;100754.66;;;12.48;73.10
79150;BME280;68563;45.644;13.782;2024-03-29T05:59:13;100754.63;;;12.51;73.19
79150;BME280;68563;45.644;13.782;2024-03-29T06:01:39;100760.59;;;12.55;72.04
79150;BME280;68563;45.644;13.782;2024-03-29T06:04:04;100764.00;;;12.57;70.76
79150;BME280;68563;45.644;13.782;2024-03-29T06:06:38;100767.41;;;12.60;70.40
79150;BME280;68563;45.644;13.782;2024-03-29T06:09:03;100768.28;;;12.59;70.05
79150;BME280;68563;45.644;13.782;2024-03-29T06:11:29;100759.56;;;12.64;71.03
79150;BME280;68563;45.644;13.782;2024-03-29T06:13:54;100772.38;;;12.71;70.36
79150;BME280;68563;45.644;13.782;2024-03-29T06:16:21;100771.47;;;12.74;69.97
79150;BME280;68563;45.644;13.782;2024-03-29T06:19:04;100771.47;;;12.75;70.03
79150;BME280;68563;45.644;13.782;2024-03-29T06:21:30;100769.75;;;12.73;70.49
79150;BME280;68563;45.644;13.782;2024-03-29T06:24:07;100777.41;;;12.81;70.19
79150;BME280;68563;45.644;13.782;2024-03-29T06:26:33;100780.91;;;12.80;69.96
79150;BME280;68563;45.644;13.782;2024-03-29T06:29:00;100768.81;;;12.77;69.80
79150;BME280;68563;45.644;13.782;2024-03-29T06:31:25;100781.69;;;12.83;69.93
79150;BME280;68563;45.644;13.782;2024-03-29T06:33:51;100778.19;;;12.84;70.21
79150;BME280;68563;45.644;13.782;2024-03-29T06:36:16;100785.88;;;12.90;70.43
79150;BME280;68563;45.644;13.782;2024-03-29T06:38:42;100785.88;;;12.90;70.68
79150;BME280;68563;45.644;13.782;2024-03-29T06:41:07;100780.69;;;12.90;70.29
79150;BME280;68563;45.644;13.782;2024-03-29T06:43:33;100779.78;;;12.91;70.26
79150;BME280;68563;45.644;13.782;2024-03-29T06:45:58;100778.91;;;12.92;70.50
79150;BME280;68563;45.644;13.782;2024-03-29T06:48:24;100770.25;;;12.92;70.49
79150;BME280;68563;45.644;13.782;2024-03-29T06:50:50;100777.94;;;12.97;69.92
79150;BME280;68563;45.644;13.782;2024-03-29T06:53:16;100779.78;;;12.91;70.19
79150;BME280;68563;45.644;13.782;2024-03-29T06:55:41;100782.25;;;12.98;70.19
79150;BME280;68563;45.644;13.782;2024-03-29T06:58:06;100783.00;;;13.03;69.52
79150;BME280;68563;45.644;13.782;2024-03-29T07:00:32;100780.34;;;13.06;70.10
79150;BME280;68563;45.644;13.782;2024-03-29T07:02:58;100777.81;;;13.03;70.19
79150;BME280;68563;45.644;13.782;2024-03-29T07:05:23;100782.97;;;13.04;70.04
79150;BME280;68563;45.644;13.782;2024-03-29T07:07:48;100776.84;;;13.08;70.25
79150;BME280;68563;45.644;13.782;2024-03-29T07:10:14;100781.16;;;13.08;69.91
79150;BME280;68563;45.644;13.782;2024-03-29T07:12:39;100766.25;;;13.16;70.34
79150;BME280;68563;45.644;13.782;2024-03-29T07:15:05;100775.72;;;13.20;70.15
79150;BME280;68563;45.644;13.782;2024-03-29T07:17:31;100767.91;;;13.20;70.58
79150;BME280;68563;45.644;13.782;2024-03-29T07:19:56;100775.56;;;13.27;70.27
79150;BME280;68563;45.644;13.782;2024-03-29T07:22:22;100767.53;;;13.39;70.03
79150;BME280;68563;45.644;13.782;2024-03-29T07:24:47;100762.28;;;13.40;70.51
79150;BME280;68563;45.644;13.782;2024-03-29T07:27:12;100752.78;;;13.38;70.40
79150;BME280;68563;45.644;13.782;2024-03-29T07:29:42;100759.66;;;13.40;70.39
79150;BME280;68563;45.644;13.782;2024-03-29T07:32:09;100761.91;;;13.56;70.17
79150;BME280;68563;45.644;13.782;2024-03-29T07:34:34;100765.31;;;13.60;70.21
79150;BME280;68563;45.644;13.782;2024-03-29T07:37:00;100772.63;;;13.80;70.01
79150;BME280;68563;45.644;13.782;2024-03-29T07:39:25;100770.06;;;13.78;69.63
79150;BME280;68563;45.644;13.782;2024-03-29T07:41:51;100777.56;;;13.91;69.31
79150;BME280;68563;45.644;13.782;2024-03-29T07:44:16;100774.94;;;13.92;69.25
79150;BME280;68563;45.644;13.782;2024-03-29T07:46:42;100778.25;;;13.97;69.65
79150;BME280;68563;45.644;13.782;2024-03-29T07:49:07;100784.03;;;14.10;69.54
79150;BME280;68563;45.644;13.782;2024-03-29T07:51:33;100771.78;;;14.12;68.77
79150;BME280;68563;45.644;13.782;2024-03-29T07:53:58;100779.78;;;14.06;68.89
79150;BME280;68563;45.644;13.782;2024-03-29T07:56:24;100781.59;;;14.04;69.31
79150;BME280;68563;45.644;13.782;2024-03-29T07:58:53;100783.34;;;14.02;69.35
79150;BME280;68563;45.644;13.782;2024-03-29T08:01:22;100779.53;;;14.15;69.03
79150;BME280;68563;45.644;13.782;2024-03-29T08:03:50;100780.59;;;14.08;69.14
79150;BME280;68563;45.644;13.782;2024-03-29T08:06:17;100784.91;;;14.09;69.52
79150;BME280;68563;45.644;13.782;2024-03-29T08:08:44;100786.19;;;14.27;69.37
79150;BME280;68563;45.644;13.782;2024-03-29T08:11:09;100780.88;;;14.30;68.94
79150;BME280;68563;45.644;13.782;2024-03-29T08:13:35;100788.34;;;14.44;71.93
79150;BME280;68563;45.644;13.782;2024-03-29T08:16:01;100784.84;;;14.44;71.38
79150;BME280;68563;45.644;13.782;2024-03-29T08:18:28;100794.22;;;14.51;71.34
79150;BME280;68563;45.644;13.782;2024-03-29T08:20:54;100790.72;;;14.54;71.51
79150;BME280;68563;45.644;13.782;2024-03-29T08:23:21;100790.53;;;14.60;71.17
79150;BME280;68563;45.644;13.782;2024-03-29T08:25:46;100784.38;;;14.62;71.07
79150;BME280;68563;45.644;13.782;2024-03-29T08:28:13;100787.50;;;14.75;70.99
79150;BME280;68563;45.644;13.782;2024-03-29T08:30:38;100789.00;;;14.84;70.73
79150;BME280;68563;45.644;13.782;2024-03-29T08:33:04;100798.50;;;14.87;70.56
79150;BME280;68563;45.644;13.782;2024-03-29T08:35:30;100794.06;;;14.90;70.48
79150;BME280;68563;45.644;13.782;2024-03-29T08:37:56;100792.22;;;14.94;70.06
79150;BME280;68563;45.644;13.782;2024-03-29T08:40:22;100788.84;;;14.90;69.92
79150;BME280;68563;45.644;13.782;2024-03-29T08:42:47;100796.69;;;14.89;70.21
79150;BME280;68563;45.644;13.782;2024-03-29T08:45:13;100800.22;;;14.88;70.56
79150;BME280;68563;45.644;13.782;2024-03-29T08:47:39;100787.19;;;14.86;71.14
79150;BME280;68563;45.644;13.782;2024-03-29T08:50:05;100788.84;;;14.89;71.68
79150;BME280;68563;45.644;13.782;2024-03-29T08:52:30;100788.06;;;14.87;71.55
79150;BME280;68563;45.644;13.782;2024-03-29T08:54:56;100790.53;;;14.91;71.82
79150;BME280;68563;45.644;13.782;2024-03-29T08:57:21;100791.25;;;14.96;71.19
79150;BME280;68563;45.644;13.782;2024-03-29T08:59:48;100795.28;;;15.07;71.62
79150;BME280;68563;45.644;13.782;2024-03-29T09:02:14;100789.88;;;15.13;71.03
79150;BME280;68563;45.644;13.782;2024-03-29T09:04:39;100790.06;;;15.08;71.50
79150;BME280;68563;45.644;13.782;2024-03-29T09:07:04;100787.34;;;15.11;71.26
79150;BME280;68563;45.644;13.782;2024-03-29T09:09:31;100791.84;;;15.06;71.80
79150;BME280;68563;45.644;13.782;2024-03-29T09:11:58;100798.81;;;15.06;72.26
79150;BME280;68563;45.644;13.782;2024-03-29T09:14:23;100802.34;;;15.03;72.31
79150;BME280;68563;45.644;13.782;2024-03-29T09:16:49;100803.28;;;15.02;72.07
79150;BME280;68563;45.644;13.782;2024-03-29T09:19:15;100804.25;;;14.98;72.43
79150;BME280;68563;45.644;13.782;2024-03-29T09:21:41;100800.03;;;14.94;72.80
79150;BME280;68563;45.644;13.782;2024-03-29T09:24:06;100796.56;;;14.93;72.77
79150;BME280;68563;45.644;13.782;2024-03-29T09:26:32;100783.63;;;14.89;73.06
79150;BME280;68563;45.644;13.782;2024-03-29T09:28:58;100793.16;;;14.91;72.91
79150;BME280;68563;45.644;13.782;2024-03-29T09:31:23;100798.31;;;14.93;73.17
79150;BME280;68563;45.644;13.782;2024-03-29T09:33:48;100794.00;;;14.92;73.20
79150;BME280;68563;45.644;13.782;2024-03-29T09:36:21;100794.00;;;14.92;73.91
79150;BME280;68563;45.644;13.782;2024-03-29T09:38:49;100796.56;;;14.93;74.05
79150;BME280;68563;45.644;13.782;2024-03-29T09:41:15;100781.97;;;14.88;73.91
79150;BME280;68563;45.644;13.782;2024-03-29T09:43:44;100790.56;;;14.90;73.71
79150;BME280;68563;45.644;13.782;2024-03-29T09:46:10;100781.97;;;14.88;73.76
79150;BME280;68563;45.644;13.782;2024-03-29T09:48:37;100782.09;;;14.81;72.74
79150;BME280;68563;45.644;13.782;2024-03-29T09:51:04;100774.47;;;14.75;73.24
79150;BME280;68563;45.644;13.782;2024-03-29T09:53:32;100769.44;;;14.69;73.00
79150;BME280;68563;45.644;13.782;2024-03-29T09:55:59;100779.72;;;14.74;73.38
79150;BME280;68563;45.644;13.782;2024-03-29T09:58:25;100781.41;;;14.76;74.01
79150;BME280;68563;45.644;13.782;2024-03-29T10:00:50;100779.25;;;14.91;74.65
79150;BME280;68563;45.644;13.782;2024-03-29T10:03:16;100777.97;;;15.04;73.98
79150;BME280;68563;45.644;13.782;2024-03-29T10:05:46;100781.84;;;15.21;72.76
79150;BME280;68563;45.644;13.782;2024-03-29T10:08:12;100766.91;;;15.26;71.33
79150;BME280;68563;45.644;13.782;2024-03-29T10:10:38;100778.78;;;15.36;71.15
79150;BME280;68563;45.644;13.782;2024-03-29T10:13:04;100774.25;;;15.41;71.13
79150;BME280;68563;45.644;13.782;2024-03-29T10:15:29;100777.56;;;15.46;70.32
79150;BME280;68563;45.644;13.782;2024-03-29T10:17:58;100773.06;;;15.52;70.15
79150;BME280;68563;45.644;13.782;2024-03-29T10:20:24;100776.47;;;15.54;70.19
79150;BME280;68563;45.644;13.782;2024-03-29T10:22:52;100769.53;;;15.53;69.58
79150;BME280;68563;45.644;13.782;2024-03-29T10:25:18;100778.81;;;15.61;69.56
79150;BME280;68563;45.644;13.782;2024-03-29T10:27:45;100780.41;;;15.67;68.48
79150;BME280;68563;45.644;13.782;2024-03-29T10:30:11;100776.81;;;15.70;68.90
79150;BME280;68563;45.644;13.782;2024-03-29T10:32:39;100783.69;;;15.74;68.48
79150;BME280;68563;45.644;13.782;2024-03-29T10:35:05;100780.16;;;15.75;68.17
79150;BME280;68563;45.644;13.782;2024-03-29T10:37:31;100776.03;;;15.68;68.33
79150;BME280;68563;45.644;13.782;2024-03-29T10:40:00;100775.13;;;15.69;68.28
79150;BME280;68563;45.644;13.782;2024-03-29T10:42:26;100779.41;;;15.71;67.85
79150;BME280;68563;45.644;13.782;2024-03-29T10:44:52;100781.28;;;15.68;67.89
79150;BME280;68563;45.644;13.782;2024-03-29T10:47:19;100788.38;;;15.62;67.88
79150;BME280;68563;45.644;13.782;2024-03-29T10:49:50;100783.31;;;15.58;67.85
79150;BME280;68563;45.644;13.782;2024-03-29T10:52:18;100784.41;;;15.51;67.49
79150;BME280;68563;45.644;13.782;2024-03-29T10:54:46;100778.59;;;15.42;67.86
79150;BME280;68563;45.644;13.782;2024-03-29T10:57:19;100786.56;;;15.38;68.45
79150;BME280;68563;45.644;13.782;2024-03-29T11:00:03;100790.13;;;15.34;68.68
79150;BME280;68563;45.644;13.782;2024-03-29T11:05:37;100789.72;;;15.19;68.50
79150;BME280;68563;45.644;13.782;2024-03-29T11:08:06;100797.56;;;15.18;68.85
79150;BME280;68563;45.644;13.782;2024-03-29T11:10:36;100793.19;;;15.20;68.63
79150;BME280;68563;45.644;13.782;2024-03-29T11:15:49;100797.56;;;15.18;69.30
79150;BME280;68563;45.644;13.782;2024-03-29T11:18:16;100801.19;;;15.13;69.35
79150;BME280;68563;45.644;13.782;2024-03-29T11:20:45;100798.59;;;15.13;68.95
79150;BME280;68563;45.644;13.782;2024-03-29T11:23:17;100788.16;;;15.13;69.00
79150;BME280;68563;45.644;13.782;2024-03-29T11:25:49;100791.66;;;15.12;69.17
79150;BME280;68563;45.644;13.782;2024-03-29T11:28:37;100799.34;;;15.17;68.87
79150;BME280;68563;45.644;13.782;2024-03-29T11:31:06;100798.44;;;15.18;69.21
79150;BME280;68563;45.644;13.782;2024-03-29T11:33:44;100787.91;;;15.21;69.05
79150;BME280;68563;45.644;13.782;2024-03-29T11:36:29;100793.88;;;15.25;69.00
79150;BME280;68563;45.644;13.782;2024-03-29T11:38:57;100786.03;;;15.26;68.66
79150;BME280;68563;45.644;13.782;2024-03-29T11:41:24;100783.25;;;15.31;69.11
79150;BME280;68563;45.644;13.782;2024-03-29T11:43:51;100779.69;;;15.34;69.24
79150;BME280;68563;45.644;13.782;2024-03-29T11:46:17;100778.84;;;15.33;69.47
79150;BME280;68563;45.644;13.782;2024-03-29T11:48:43;100776.19;;;15.35;69.33
79150;BME280;68563;45.644;13.782;2024-03-29T11:51:15;100777.06;;;15.35;69.55
79150;BME280;68563;45.644;13.782;2024-03-29T11:53:42;100760.53;;;15.35;69.77
79150;BME280;68563;45.644;13.782;2024-03-29T11:56:07;100756.97;;;15.37;70.28
79150;BME280;68563;45.644;13.782;2024-03-29T11:58:34;100748.38;;;15.35;70.55
79150;BME280;68563;45.644;13.782;2024-03-29T12:01:00;100746.53;;;15.37;70.58
79150;BME280;68563;45.644;13.782;2024-03-29T12:03:27;100744.78;;;15.38;70.61
79150;BME280;68563;45.644;13.782;2024-03-29T12:05:54;100734.44;;;15.35;70.87
79150;BME280;68563;45.644;13.782;2024-03-29T12:08:23;100748.25;;;15.38;72.56
79150;BME280;68563;45.644;13.782;2024-03-29T12:10:49;100742.31;;;15.33;72.44
79150;BME280;68563;45.644;13.782;2024-03-29T12:13:16;100753.44;;;15.40;72.83
79150;BME280;68563;45.644;13.782;2024-03-29T12:15:42;100741.31;;;15.37;72.34
79150;BME280;68563;45.644;13.782;2024-03-29T12:18:08;100744.69;;;15.41;72.95
79150;BME280;68563;45.644;13.782;2024-03-29T12:20:37;100739.63;;;15.36;73.10
79150;BME280;68563;45.644;13.782;2024-03-29T12:23:04;100747.41;;;15.38;73.13
79150;BME280;68563;45.644;13.782;2024-03-29T12:25:31;100744.84;;;15.36;72.86
79150;BME280;68563;45.644;13.782;2024-03-29T12:27:58;100746.44;;;15.40;72.94
79150;BME280;68563;45.644;13.782;2024-03-29T12:30:24;100744.78;;;15.38;73.52
79150;BME280;68563;45.644;13.782;2024-03-29T12:33:05;100750.00;;;15.38;73.42
79150;BME280;68563;45.644;13.782;2024-03-29T12:35:35;100745.75;;;15.35;73.29
79150;BME280;68563;45.644;13.782;2024-03-29T12:38:03;100752.69;;;15.36;73.36
79150;BME280;68563;45.644;13.782;2024-03-29T12:40:31;100737.94;;;15.35;73.29
79150;BME280;68563;45.644;13.782;2024-03-29T12:43:05;100742.25;;;15.36;73.34